createdAt,value
2019-06-10T00:00:01.651Z,1010.37
2019-06-10T00:01:04.228Z,1010.40
2019-06-10T00:02:02.526Z,1010.35
2019-06-10T00:03:02.884Z,1010.33
2019-06-10T00:04:05.110Z,1010.31
2019-06-10T00:05:03.719Z,1010.34
2019-06-10T00:06:03.704Z,1010.28
2019-06-10T00:07:03.766Z,1010.29
2019-06-10T00:08:03.864Z,1010.29
2019-06-10T00:09:04.224Z,1010.27
2019-06-10T00:10:04.000Z,1010.26
2019-06-10T00:11:04.417Z,1010.26
2019-06-10T00:12:04.245Z,1010.26
2019-06-10T00:13:03.443Z,1010.27
2019-06-10T00:14:02.781Z,1010.25
2019-06-10T00:15:02.914Z,1010.21
2019-06-10T00:16:01.713Z,1010.16
2019-06-10T00:17:01.997Z,1010.15
2019-06-10T00:18:18.701Z,1010.14
2019-06-10T00:19:06.046Z,1010.08
2019-06-10T00:20:02.412Z,1010.09
2019-06-10T00:21:03.287Z,1010.05
2019-06-10T00:22:02.453Z,1010.04
2019-06-10T00:23:02.556Z,1010.02
2019-06-10T00:24:02.593Z,1010.02
2019-06-10T00:25:02.655Z,1010.02
2019-06-10T00:26:04.398Z,1010.00
2019-06-10T00:27:02.855Z,1010.04
2019-06-10T00:28:02.594Z,1010.02
2019-06-10T00:29:02.740Z,1010.04
2019-06-10T00:30:02.919Z,1010.07
2019-06-10T00:31:01.189Z,1010.03
2019-06-10T00:32:03.353Z,1010.00
2019-06-10T00:33:01.174Z,1010.00
2019-06-10T00:34:02.985Z,1009.99
2019-06-10T00:35:01.941Z,1009.98
2019-06-10T00:36:03.720Z,1009.92
2019-06-10T00:37:02.655Z,1009.89
2019-06-10T00:38:02.493Z,1009.87
2019-06-10T00:39:03.513Z,1009.89
2019-06-10T00:40:02.603Z,1009.85
2019-06-10T00:41:02.300Z,1009.81
2019-06-10T00:42:02.561Z,1009.82
2019-06-10T00:43:02.162Z,1009.83
2019-06-10T00:44:01.811Z,1009.86
2019-06-10T00:45:02.669Z,1009.85
2019-06-10T00:46:00.786Z,1009.86
2019-06-10T00:47:00.680Z,1009.80
2019-06-10T00:48:13.506Z,1009.85
2019-06-10T00:49:02.973Z,1009.79
2019-06-10T00:50:03.253Z,1009.76
2019-06-10T00:51:01.344Z,1009.76
2019-06-10T00:52:01.614Z,1009.76
2019-06-10T00:53:01.288Z,1009.79
2019-06-10T00:54:02.031Z,1009.70
2019-06-10T00:55:01.727Z,1009.75
2019-06-10T00:56:01.527Z,1009.72
2019-06-10T00:57:01.183Z,1009.77
2019-06-10T00:58:01.425Z,1009.73
2019-06-10T00:59:01.042Z,1009.66
2019-06-10T01:00:01.712Z,1009.64
2019-06-10T01:01:01.179Z,1009.63
2019-06-10T01:02:01.281Z,1009.69
2019-06-10T01:03:01.074Z,1009.63
2019-06-10T01:04:01.394Z,1009.64
2019-06-10T01:05:00.885Z,1009.61
2019-06-10T01:06:01.123Z,1009.63
2019-06-10T01:07:00.782Z,1009.61
2019-06-10T01:08:01.217Z,1009.58
2019-06-10T01:09:00.655Z,1009.61
2019-06-10T01:10:00.954Z,1009.61
2019-06-10T01:10:58.924Z,1009.54
2019-06-10T01:12:01.056Z,1009.56
2019-06-10T01:13:00.825Z,1009.55
2019-06-10T01:13:58.754Z,1009.52
2019-06-10T01:15:00.759Z,1009.53
2019-06-10T01:15:58.687Z,1009.49
2019-06-10T01:17:01.140Z,1009.50
2019-06-10T01:17:58.600Z,1009.42
2019-06-10T01:19:01.265Z,1009.38
2019-06-10T01:19:58.513Z,1009.39
2019-06-10T01:20:58.514Z,1009.39
2019-06-10T01:21:58.478Z,1009.40
2019-06-10T01:22:58.397Z,1009.40
2019-06-10T01:23:58.370Z,1009.42
2019-06-10T01:24:58.335Z,1009.36
2019-06-10T01:25:58.284Z,1009.38
2019-06-10T01:26:58.279Z,1009.37
2019-06-10T01:28:00.497Z,1009.34
2019-06-10T01:28:58.180Z,1009.33
2019-06-10T01:29:58.134Z,1009.33
2019-06-10T01:30:58.090Z,1009.30
2019-06-10T01:31:58.054Z,1009.29
2019-06-10T01:32:58.014Z,1009.30
2019-06-10T01:33:58.005Z,1009.28
2019-06-10T01:34:57.942Z,1009.29
2019-06-10T01:35:57.912Z,1009.31
2019-06-10T01:36:57.868Z,1009.26
2019-06-10T01:37:57.829Z,1009.28
2019-06-10T01:38:57.836Z,1009.28
2019-06-10T01:39:57.745Z,1009.25
2019-06-10T01:40:57.706Z,1009.24
2019-06-10T01:41:57.667Z,1009.25
2019-06-10T01:42:57.638Z,1009.25
2019-06-10T01:43:57.585Z,1009.28
2019-06-10T01:44:57.599Z,1009.24
2019-06-10T01:45:57.520Z,1009.24
2019-06-10T01:46:57.483Z,1009.22
2019-06-10T01:47:57.434Z,1009.18
2019-06-10T01:48:57.405Z,1009.19
2019-06-10T01:49:57.358Z,1009.17
2019-06-10T01:50:57.354Z,1009.14
2019-06-10T01:51:57.311Z,1009.16
2019-06-10T01:52:57.254Z,1009.13
2019-06-10T01:53:57.218Z,1009.12
2019-06-10T01:54:57.172Z,1009.08
2019-06-10T01:55:57.130Z,1009.06
2019-06-10T01:56:57.083Z,1009.05
2019-06-10T01:57:57.086Z,1008.99
2019-06-10T01:58:57.008Z,1008.98
2019-06-10T01:59:57.002Z,1008.96
2019-06-10T02:00:56.952Z,1008.92
2019-06-10T02:01:56.898Z,1008.89
2019-06-10T02:02:56.859Z,1008.89
2019-06-10T02:03:56.819Z,1008.87
2019-06-10T02:04:56.815Z,1008.85
2019-06-10T02:05:56.734Z,1008.82
2019-06-10T02:08:45.675Z,1008.80
2019-06-10T02:09:46.194Z,1008.77
2019-06-10T02:10:45.746Z,1008.72
2019-06-10T02:11:46.276Z,1008.72
2019-06-10T02:12:46.304Z,1008.71
2019-06-10T02:13:45.858Z,1008.69
2019-06-10T02:14:36.765Z,1008.66
2019-06-10T02:15:36.695Z,1008.61
2019-06-10T02:16:36.658Z,1008.62
2019-06-10T02:17:36.607Z,1008.61
2019-06-10T02:18:36.574Z,1008.62
2019-06-10T02:19:36.561Z,1008.62
2019-06-10T02:20:36.494Z,1008.56
2019-06-10T02:21:36.464Z,1008.55
2019-06-10T02:22:36.419Z,1008.58
2019-06-10T02:23:36.408Z,1008.53
2019-06-10T02:24:36.368Z,1008.53
2019-06-10T02:25:36.302Z,1008.55
2019-06-10T02:26:36.265Z,1008.50
2019-06-10T02:27:36.225Z,1008.50
2019-06-10T02:28:45.377Z,1008.46
2019-06-10T02:29:44.935Z,1008.48
2019-06-10T02:30:50.830Z,1008.44
2019-06-10T02:31:45.621Z,1008.47
2019-06-10T02:32:45.512Z,1008.42
2019-06-10T02:33:36.967Z,1008.44
2019-06-10T02:34:42.862Z,1008.42
2019-06-10T02:35:44.121Z,1008.39
2019-06-10T02:36:37.140Z,1008.43
2019-06-10T02:37:38.272Z,1008.41
2019-06-10T02:38:39.627Z,1008.39
2019-06-10T02:39:39.046Z,1008.40
2019-06-10T02:40:39.081Z,1008.39
2019-06-10T02:41:36.453Z,1008.40
2019-06-10T02:42:36.277Z,1008.41
2019-06-10T02:43:37.355Z,1008.37
2019-06-10T02:44:37.554Z,1008.36
2019-06-10T02:45:37.653Z,1008.37
2019-06-10T02:46:36.151Z,1008.38
2019-06-10T02:47:37.913Z,1008.41
2019-06-10T02:48:35.704Z,1008.42
2019-06-10T02:49:56.383Z,1008.40
2019-06-10T02:50:36.369Z,1008.39
2019-06-10T02:51:35.856Z,1008.39
2019-06-10T02:52:38.522Z,1008.41
2019-06-10T02:53:36.359Z,1008.39
2019-06-10T02:54:36.083Z,1008.40
2019-06-10T02:55:35.308Z,1008.41
2019-06-10T02:56:36.382Z,1008.45
2019-06-10T02:57:39.674Z,1008.48
2019-06-10T02:58:39.260Z,1008.48
2019-06-10T02:59:36.365Z,1008.47
2019-06-10T03:00:42.840Z,1008.43
2019-06-10T03:01:38.203Z,1008.41
2019-06-10T03:02:36.458Z,1008.43
2019-06-10T03:03:42.576Z,1008.42
2019-06-10T03:04:37.547Z,1008.43
2019-06-10T03:05:40.805Z,1008.44
2019-06-10T03:06:39.505Z,1008.41
2019-06-10T03:07:35.631Z,1008.41
2019-06-10T03:08:36.287Z,1008.38
2019-06-10T03:09:35.793Z,1008.41
2019-06-10T03:10:37.075Z,1008.41
2019-06-10T03:11:37.116Z,1008.43
2019-06-10T03:12:34.465Z,1008.43
2019-06-10T03:13:34.432Z,1008.40
2019-06-10T03:14:34.382Z,1008.45
2019-06-10T03:15:34.383Z,1008.40
2019-06-10T03:16:34.318Z,1008.41
2019-06-10T03:17:34.268Z,1008.44
2019-06-10T03:18:34.229Z,1008.43
2019-06-10T03:19:42.293Z,1008.43
2019-06-10T03:20:34.585Z,1008.40
2019-06-10T03:21:34.115Z,1008.44
2019-06-10T03:22:34.082Z,1008.41
2019-06-10T03:23:34.040Z,1008.41
2019-06-10T03:24:34.015Z,1008.42
2019-06-10T03:25:33.960Z,1008.43
2019-06-10T03:26:33.953Z,1008.43
2019-06-10T03:27:33.927Z,1008.41
2019-06-10T03:28:33.849Z,1008.38
2019-06-10T03:29:33.810Z,1008.45
2019-06-10T03:30:46.656Z,1008.41
2019-06-10T03:31:41.401Z,1008.40
2019-06-10T03:32:40.550Z,1008.38
2019-06-10T03:33:40.756Z,1008.38
2019-06-10T03:34:41.261Z,1008.39
2019-06-10T03:35:33.568Z,1008.40
2019-06-10T03:36:33.535Z,1008.40
2019-06-10T03:37:33.493Z,1008.39
2019-06-10T03:38:36.363Z,1008.37
2019-06-10T03:39:33.419Z,1008.39
2019-06-10T03:40:33.382Z,1008.35
2019-06-10T03:41:33.349Z,1008.36
2019-06-10T03:42:33.306Z,1008.35
2019-06-10T03:43:33.264Z,1008.30
2019-06-10T03:44:33.261Z,1008.29
2019-06-10T03:45:33.184Z,1008.27
2019-06-10T03:46:33.150Z,1008.24
2019-06-10T03:47:33.113Z,1008.25
2019-06-10T03:48:33.141Z,1008.23
2019-06-10T03:49:33.031Z,1008.24
2019-06-10T03:50:33.023Z,1008.28
2019-06-10T03:51:33.439Z,1008.27
2019-06-10T03:52:32.919Z,1008.28
2019-06-10T03:53:33.648Z,1008.28
2019-06-10T03:54:32.841Z,1008.29
2019-06-10T03:55:33.169Z,1008.32
2019-06-10T03:56:32.760Z,1008.28
2019-06-10T03:57:33.077Z,1008.31
2019-06-10T03:58:32.996Z,1008.34
2019-06-10T03:59:32.652Z,1008.31
2019-06-10T04:00:32.885Z,1008.34
2019-06-10T04:01:33.392Z,1008.32
2019-06-10T04:02:32.725Z,1008.35
2019-06-10T04:03:33.955Z,1008.36
2019-06-10T04:04:32.808Z,1008.32
2019-06-10T04:05:33.172Z,1008.32
2019-06-10T04:06:33.609Z,1008.28
2019-06-10T04:07:34.274Z,1008.32
2019-06-10T04:08:32.950Z,1008.29
2019-06-10T04:09:33.080Z,1008.31
2019-06-10T04:10:32.525Z,1008.25
2019-06-10T04:11:34.909Z,1008.29
2019-06-10T04:12:32.730Z,1008.27
2019-06-10T04:13:33.754Z,1008.25
2019-06-10T04:14:32.759Z,1008.31
2019-06-10T04:15:32.554Z,1008.27
2019-06-10T04:16:32.740Z,1008.25
2019-06-10T04:17:33.332Z,1008.22
2019-06-10T04:18:32.734Z,1008.24
2019-06-10T04:19:32.778Z,1008.21
2019-06-10T04:20:33.189Z,1008.23
2019-06-10T04:21:32.595Z,1008.24
2019-06-10T04:22:32.952Z,1008.27
2019-06-10T04:23:33.539Z,1008.26
2019-06-10T04:24:32.709Z,1008.23
2019-06-10T04:25:32.373Z,1008.29
2019-06-10T04:26:32.760Z,1008.28
2019-06-10T04:27:32.858Z,1008.24
2019-06-10T04:28:33.735Z,1008.25
2019-06-10T04:29:32.945Z,1008.25
2019-06-10T04:30:32.530Z,1008.26
2019-06-10T04:31:33.092Z,1008.25
2019-06-10T04:32:32.261Z,1008.25
2019-06-10T04:33:32.867Z,1008.25
2019-06-10T04:34:33.347Z,1008.23
2019-06-10T04:35:33.536Z,1008.21
2019-06-10T04:36:33.330Z,1008.21
2019-06-10T04:37:32.533Z,1008.16
2019-06-10T04:38:32.847Z,1008.15
2019-06-10T04:39:33.479Z,1008.17
2019-06-10T04:40:32.905Z,1008.19
2019-06-10T04:41:32.497Z,1008.18
2019-06-10T04:42:33.002Z,1008.14
2019-06-10T04:43:32.661Z,1008.19
2019-06-10T04:44:32.994Z,1008.17
2019-06-10T04:45:32.431Z,1008.20
2019-06-10T04:46:32.518Z,1008.17
2019-06-10T04:47:33.089Z,1008.19
2019-06-10T04:48:32.663Z,1008.19
2019-06-10T04:49:32.744Z,1008.19
2019-06-10T04:50:37.236Z,1008.19
2019-06-10T04:51:32.673Z,1008.19
2019-06-10T04:52:32.874Z,1008.17
2019-06-10T04:53:32.623Z,1008.21
2019-06-10T04:54:30.529Z,1008.24
2019-06-10T04:55:32.493Z,1008.24
2019-06-10T04:56:32.886Z,1008.24
2019-06-10T04:57:32.502Z,1008.25
2019-06-10T04:58:32.656Z,1008.28
2019-06-10T04:59:31.087Z,1008.27
2019-06-10T05:00:30.984Z,1008.26
2019-06-10T05:01:30.257Z,1008.26
2019-06-10T05:02:32.849Z,1008.23
2019-06-10T05:03:32.636Z,1008.24
2019-06-10T05:04:32.737Z,1008.22
2019-06-10T05:05:32.622Z,1008.22
2019-06-10T05:06:32.610Z,1008.22
2019-06-10T05:07:36.019Z,1008.19
2019-06-10T05:08:30.012Z,1008.16
2019-06-10T05:09:31.276Z,1008.20
2019-06-10T05:10:29.995Z,1008.20
2019-06-10T05:11:30.858Z,1008.20
2019-06-10T05:12:29.833Z,1008.20
2019-06-10T05:13:30.026Z,1008.19
2019-06-10T05:14:30.962Z,1008.23
2019-06-10T05:15:31.717Z,1008.24
2019-06-10T05:16:31.963Z,1008.24
2019-06-10T05:17:31.058Z,1008.25
2019-06-10T05:18:30.289Z,1008.29
2019-06-10T05:19:30.673Z,1008.25
2019-06-10T05:20:46.736Z,1008.26
2019-06-10T05:21:30.879Z,1008.28
2019-06-10T05:22:30.617Z,1008.28
2019-06-10T05:23:29.970Z,1008.21
2019-06-10T05:24:30.133Z,1008.26
2019-06-10T05:25:30.175Z,1008.25
2019-06-10T05:26:30.487Z,1008.28
2019-06-10T05:27:30.837Z,1008.25
2019-06-10T05:28:30.276Z,1008.24
2019-06-10T05:29:29.892Z,1008.26
2019-06-10T05:30:29.501Z,1008.25
2019-06-10T05:31:31.190Z,1008.24
2019-06-10T05:32:29.103Z,1008.20
2019-06-10T05:33:29.028Z,1008.20
2019-06-10T05:34:30.241Z,1008.18
2019-06-10T05:35:29.959Z,1008.18
2019-06-10T05:36:30.150Z,1008.17
2019-06-10T05:37:29.365Z,1008.18
2019-06-10T05:38:30.211Z,1008.18
2019-06-10T05:39:29.165Z,1008.14
2019-06-10T05:40:29.376Z,1008.16
2019-06-10T05:41:29.541Z,1008.18
2019-06-10T05:42:29.343Z,1008.25
2019-06-10T05:43:29.672Z,1008.25
2019-06-10T05:44:29.856Z,1008.23
2019-06-10T05:45:29.513Z,1008.25
2019-06-10T05:46:28.761Z,1008.32
2019-06-10T05:47:29.863Z,1008.28
2019-06-10T05:48:28.479Z,1008.27
2019-06-10T05:49:29.227Z,1008.28
2019-06-10T05:50:28.541Z,1008.27
2019-06-10T05:51:29.037Z,1008.30
2019-06-10T05:52:29.069Z,1008.35
2019-06-10T05:53:29.229Z,1008.28
2019-06-10T05:54:29.110Z,1008.28
2019-06-10T05:55:29.083Z,1008.31
2019-06-10T05:56:29.142Z,1008.28
2019-06-10T05:57:29.365Z,1008.28
2019-06-10T05:58:29.294Z,1008.27
2019-06-10T05:59:29.363Z,1008.23
2019-06-10T06:00:28.011Z,1008.28
2019-06-10T06:01:27.976Z,1008.24
2019-06-10T06:02:27.938Z,1008.21
2019-06-10T06:03:27.901Z,1008.24
2019-06-10T06:04:28.064Z,1008.20
2019-06-10T06:05:27.993Z,1008.20
2019-06-10T06:06:28.940Z,1008.18
2019-06-10T06:07:27.751Z,1008.15
2019-06-10T06:08:27.716Z,1008.17
2019-06-10T06:09:27.684Z,1008.14
2019-06-10T06:10:27.677Z,1008.16
2019-06-10T06:11:27.599Z,1008.19
2019-06-10T06:12:27.565Z,1008.16
2019-06-10T06:13:27.529Z,1008.11
2019-06-10T06:14:27.564Z,1008.12
2019-06-10T06:15:27.505Z,1008.14
2019-06-10T06:16:27.669Z,1008.20
2019-06-10T06:17:27.883Z,1008.20
2019-06-10T06:18:27.900Z,1008.23
2019-06-10T06:19:28.164Z,1008.21
2019-06-10T06:20:27.268Z,1008.17
2019-06-10T06:21:32.387Z,1008.17
2019-06-10T06:22:27.437Z,1008.23
2019-06-10T06:23:28.372Z,1008.21
2019-06-10T06:24:27.514Z,1008.24
2019-06-10T06:25:27.523Z,1008.20
2019-06-10T06:26:28.551Z,1008.28
2019-06-10T06:27:27.009Z,1008.30
2019-06-10T06:28:27.946Z,1008.29
2019-06-10T06:29:26.981Z,1008.30
2019-06-10T06:30:28.005Z,1008.36
2019-06-10T06:31:28.070Z,1008.35
2019-06-10T06:32:26.870Z,1008.36
2019-06-10T06:33:27.328Z,1008.40
2019-06-10T06:34:26.928Z,1008.34
2019-06-10T06:35:26.708Z,1008.35
2019-06-10T06:36:26.671Z,1008.37
2019-06-10T06:37:26.887Z,1008.31
2019-06-10T06:38:26.865Z,1008.34
2019-06-10T06:39:27.013Z,1008.32
2019-06-10T06:40:27.162Z,1008.33
2019-06-10T06:41:27.406Z,1008.32
2019-06-10T06:42:27.376Z,1008.39
2019-06-10T06:43:28.935Z,1008.34
2019-06-10T06:44:27.502Z,1008.30
2019-06-10T06:45:27.579Z,1008.28
2019-06-10T06:46:27.551Z,1008.27
2019-06-10T06:47:26.275Z,1008.24
2019-06-10T06:48:26.239Z,1008.23
2019-06-10T06:49:26.236Z,1008.20
2019-06-10T06:50:26.166Z,1008.18
2019-06-10T06:51:38.077Z,1008.19
2019-06-10T06:52:59.841Z,1008.16
2019-06-10T06:53:34.364Z,1008.21
2019-06-10T06:54:26.070Z,1008.20
2019-06-10T06:55:25.985Z,1008.21
2019-06-10T06:56:25.956Z,1008.23
2019-06-10T06:57:25.917Z,1008.22
2019-06-10T06:58:25.877Z,1008.22
2019-06-10T06:59:25.850Z,1008.21
2019-06-10T07:00:43.026Z,1008.21
2019-06-10T07:01:26.085Z,1008.18
2019-06-10T07:02:25.732Z,1008.23
2019-06-10T07:03:25.704Z,1008.26
2019-06-10T07:04:25.667Z,1008.27
2019-06-10T07:05:25.662Z,1008.26
2019-06-10T07:06:25.597Z,1008.24
2019-06-10T07:07:25.554Z,1008.22
2019-06-10T07:08:25.550Z,1008.20
2019-06-10T07:09:25.510Z,1008.19
2019-06-10T07:10:25.446Z,1008.16
2019-06-10T07:11:25.418Z,1008.17
2019-06-10T07:12:25.378Z,1008.17
2019-06-10T07:13:25.375Z,1008.13
2019-06-10T07:14:25.312Z,1008.10
2019-06-10T07:15:25.274Z,1008.13
2019-06-10T07:16:25.263Z,1008.08
2019-06-10T07:17:25.203Z,1008.15
2019-06-10T07:18:25.158Z,1008.19
2019-06-10T07:19:25.114Z,1008.13
2019-06-10T07:20:25.079Z,1008.12
2019-06-10T07:21:25.068Z,1008.06
2019-06-10T07:22:25.057Z,1008.10
2019-06-10T07:23:24.985Z,1008.09
2019-06-10T07:24:24.942Z,1008.11
2019-06-10T07:25:24.898Z,1008.17
2019-06-10T07:26:24.862Z,1008.12
2019-06-10T07:27:24.852Z,1008.12
2019-06-10T07:28:25.164Z,1008.08
2019-06-10T07:29:24.760Z,1008.10
2019-06-10T07:30:24.721Z,1008.10
2019-06-10T07:31:27.830Z,1008.16
2019-06-10T07:32:24.657Z,1008.18
2019-06-10T07:33:24.642Z,1008.20
2019-06-10T07:34:24.589Z,1008.29
2019-06-10T07:35:24.552Z,1008.32
2019-06-10T07:36:24.511Z,1008.33
2019-06-10T07:37:24.468Z,1008.34
2019-06-10T07:38:26.295Z,1008.31
2019-06-10T07:39:24.450Z,1008.32
2019-06-10T07:40:24.375Z,1008.33
2019-06-10T07:41:24.329Z,1008.24
2019-06-10T07:42:24.290Z,1008.24
2019-06-10T07:43:24.276Z,1008.24
2019-06-10T07:44:24.260Z,1008.23
2019-06-10T07:45:24.212Z,1008.24
2019-06-10T07:46:24.160Z,1008.24
2019-06-10T07:47:24.113Z,1008.24
2019-06-10T07:48:24.081Z,1008.26
2019-06-10T07:49:24.104Z,1008.25
2019-06-10T07:50:24.020Z,1008.35
2019-06-10T07:51:23.978Z,1008.36
2019-06-10T07:52:23.943Z,1008.43
2019-06-10T07:53:23.908Z,1008.58
2019-06-10T07:54:23.875Z,1008.71
2019-06-10T07:55:23.873Z,1008.76
2019-06-10T07:56:23.846Z,1008.76
2019-06-10T07:57:23.776Z,1008.70
2019-06-10T07:58:23.745Z,1008.74
2019-06-10T07:59:23.699Z,1008.47
2019-06-10T08:00:23.668Z,1008.27
2019-06-10T08:01:23.665Z,1008.31
2019-06-10T08:02:23.600Z,1008.29
2019-06-10T08:03:23.569Z,1008.33
2019-06-10T08:04:23.541Z,1008.32
2019-06-10T08:05:23.658Z,1008.37
2019-06-10T08:06:23.468Z,1008.43
2019-06-10T08:07:23.477Z,1008.41
2019-06-10T08:08:23.612Z,1008.47
2019-06-10T08:09:23.372Z,1008.50
2019-06-10T08:10:23.372Z,1008.43
2019-06-10T08:11:23.297Z,1008.27
2019-06-10T08:12:23.468Z,1008.26
2019-06-10T08:13:23.263Z,1008.29
2019-06-10T08:14:23.207Z,1008.26
2019-06-10T08:15:23.179Z,1008.38
2019-06-10T08:16:23.765Z,1008.42
2019-06-10T08:17:23.137Z,1008.40
2019-06-10T08:18:23.103Z,1008.42
2019-06-10T08:19:34.264Z,1008.50
2019-06-10T08:20:23.002Z,1008.53
2019-06-10T08:21:23.138Z,1008.37
2019-06-10T08:22:31.244Z,1008.48
2019-06-10T08:23:23.671Z,1008.38
2019-06-10T08:24:22.872Z,1008.26
2019-06-10T08:25:22.990Z,1008.24
2019-06-10T08:26:23.269Z,1008.12
2019-06-10T08:27:22.919Z,1008.25
2019-06-10T08:28:23.203Z,1008.39
2019-06-10T08:29:23.357Z,1008.06
2019-06-10T08:30:27.178Z,1008.15
2019-06-10T08:31:22.872Z,1008.04
2019-06-10T08:32:24.443Z,1008.11
2019-06-10T08:33:22.896Z,1008.21
2019-06-10T08:34:22.575Z,1008.39
2019-06-10T08:35:35.873Z,1008.50
2019-06-10T08:36:22.582Z,1008.44
2019-06-10T08:37:23.494Z,1008.35
2019-06-10T08:38:23.134Z,1008.38
2019-06-10T08:39:23.115Z,1008.34
2019-06-10T08:40:22.966Z,1008.35
2019-06-10T08:41:23.076Z,1008.32
2019-06-10T08:42:23.353Z,1008.37
2019-06-10T08:43:22.748Z,1008.41
2019-06-10T08:44:23.062Z,1008.28
2019-06-10T08:45:22.796Z,1008.13
2019-06-10T08:46:22.663Z,1008.01
2019-06-10T08:47:22.945Z,1008.03
2019-06-10T08:48:22.790Z,1008.01
2019-06-10T08:49:23.895Z,1007.93
2019-06-10T08:50:24.685Z,1008.03
2019-06-10T08:51:23.663Z,1008.18
2019-06-10T08:52:23.681Z,1008.23
2019-06-10T08:53:22.812Z,1008.41
2019-06-10T08:54:23.471Z,1008.53
2019-06-10T08:55:22.829Z,1008.50
2019-06-10T08:56:22.423Z,1008.50
2019-06-10T08:57:23.887Z,1008.57
2019-06-10T08:58:22.566Z,1008.45
2019-06-10T08:59:23.134Z,1008.49
2019-06-10T09:00:25.375Z,1008.44
2019-06-10T09:01:22.365Z,1008.55
2019-06-10T09:02:23.023Z,1008.33
2019-06-10T09:03:23.323Z,1007.90
2019-06-10T09:04:22.807Z,1007.96
2019-06-10T09:05:23.636Z,1008.51
2019-06-10T09:06:23.061Z,1008.52
2019-06-10T09:07:23.763Z,1008.46
2019-06-10T09:08:23.416Z,1008.30
2019-06-10T09:09:22.591Z,1008.26
2019-06-10T09:10:22.696Z,1008.11
2019-06-10T09:11:23.666Z,1008.26
2019-06-10T09:12:30.397Z,1008.16
2019-06-10T09:13:22.357Z,1007.83
2019-06-10T09:14:23.504Z,1008.08
2019-06-10T09:15:23.432Z,1008.10
2019-06-10T09:16:22.851Z,1008.06
2019-06-10T09:17:22.823Z,1007.89
2019-06-10T09:18:23.240Z,1007.78
2019-06-10T09:19:22.171Z,1007.56
2019-06-10T09:20:22.977Z,1007.69
2019-06-10T09:21:22.276Z,1007.71
2019-06-10T09:22:23.568Z,1007.93
2019-06-10T09:23:22.500Z,1007.86
2019-06-10T09:24:22.251Z,1007.84
2019-06-10T09:25:22.578Z,1007.72
2019-06-10T09:26:22.864Z,1007.88
2019-06-10T09:27:24.458Z,1007.92
2019-06-10T09:28:22.959Z,1007.76
2019-06-10T09:29:22.266Z,1007.87
2019-06-10T09:30:22.736Z,1007.84
2019-06-10T09:31:23.010Z,1007.72
2019-06-10T09:32:22.872Z,1007.71
2019-06-10T09:33:22.573Z,1007.68
2019-06-10T09:34:23.233Z,1007.70
2019-06-10T09:35:23.393Z,1007.70
2019-06-10T09:36:23.384Z,1007.63
2019-06-10T09:37:22.853Z,1007.69
2019-06-10T09:38:22.303Z,1007.52
2019-06-10T09:39:22.899Z,1007.55
2019-06-10T09:40:22.750Z,1007.60
2019-06-10T09:41:30.901Z,1007.65
2019-06-10T09:42:23.255Z,1007.65
2019-06-10T09:43:22.503Z,1007.64
2019-06-10T09:44:22.746Z,1007.75
2019-06-10T09:45:22.246Z,1007.64
2019-06-10T09:46:20.285Z,1007.72
2019-06-10T09:47:22.519Z,1007.71
2019-06-10T09:48:22.708Z,1007.75
2019-06-10T09:49:22.287Z,1007.77
2019-06-10T09:50:22.637Z,1007.66
2019-06-10T09:51:20.131Z,1007.72
2019-06-10T09:52:23.766Z,1007.82
2019-06-10T09:53:30.135Z,1007.83
2019-06-10T09:54:20.039Z,1007.73
2019-06-10T09:55:22.459Z,1007.75
2019-06-10T09:56:19.970Z,1007.69
2019-06-10T09:57:19.944Z,1007.75
2019-06-10T09:58:19.952Z,1007.60
2019-06-10T09:59:19.891Z,1007.73
2019-06-10T10:00:19.854Z,1007.60
2019-06-10T10:01:19.817Z,1007.51
2019-06-10T10:02:22.335Z,1007.47
2019-06-10T10:03:19.803Z,1007.51
2019-06-10T10:04:19.733Z,1007.50
2019-06-10T10:05:20.865Z,1007.54
2019-06-10T10:06:19.692Z,1007.48
2019-06-10T10:07:19.634Z,1007.43
2019-06-10T10:08:19.609Z,1007.39
2019-06-10T10:09:19.573Z,1007.38
2019-06-10T10:10:19.544Z,1007.32
2019-06-10T10:11:19.551Z,1007.32
2019-06-10T10:12:19.488Z,1007.34
2019-06-10T10:13:19.480Z,1007.35
2019-06-10T10:14:19.424Z,1007.34
2019-06-10T10:15:29.853Z,1007.45
2019-06-10T10:16:19.364Z,1007.39
2019-06-10T10:17:19.329Z,1007.29
2019-06-10T10:18:19.333Z,1007.40
2019-06-10T10:19:19.324Z,1007.42
2019-06-10T10:20:19.252Z,1007.40
2019-06-10T10:21:19.197Z,1007.39
2019-06-10T10:22:19.167Z,1007.38
2019-06-10T10:23:19.175Z,1007.36
2019-06-10T10:24:19.114Z,1007.41
2019-06-10T10:25:19.117Z,1007.40
2019-06-10T10:26:19.049Z,1007.39
2019-06-10T10:27:19.010Z,1007.38
2019-06-10T10:28:22.187Z,1007.40
2019-06-10T10:29:18.956Z,1007.41
2019-06-10T10:30:18.961Z,1007.50
2019-06-10T10:31:18.889Z,1007.52
2019-06-10T10:32:18.854Z,1007.54
2019-06-10T10:33:18.912Z,1007.52
2019-06-10T10:34:18.794Z,1007.47
2019-06-10T10:35:18.773Z,1007.49
2019-06-10T10:36:18.739Z,1007.55
2019-06-10T10:37:18.709Z,1007.51
2019-06-10T10:38:18.706Z,1007.51
2019-06-10T10:39:21.281Z,1007.39
2019-06-10T10:40:18.602Z,1007.46
2019-06-10T10:41:18.591Z,1007.51
2019-06-10T10:42:18.543Z,1007.46
2019-06-10T10:43:29.027Z,1007.41
2019-06-10T10:44:18.483Z,1007.41
2019-06-10T10:45:18.477Z,1007.39
2019-06-10T10:46:18.415Z,1007.45
2019-06-10T10:47:18.389Z,1007.44
2019-06-10T10:48:18.357Z,1007.51
2019-06-10T10:49:18.320Z,1007.45
2019-06-10T10:50:18.316Z,1007.42
2019-06-10T10:51:18.288Z,1007.37
2019-06-10T10:52:18.222Z,1007.31
2019-06-10T10:53:18.190Z,1007.31
2019-06-10T10:54:29.700Z,1007.34
2019-06-10T10:55:18.165Z,1007.32
2019-06-10T10:56:18.103Z,1007.25
2019-06-10T10:57:18.074Z,1007.29
2019-06-10T10:58:18.047Z,1007.24
2019-06-10T10:59:18.002Z,1007.18
2019-06-10T11:00:18.005Z,1007.11
2019-06-10T11:01:17.959Z,1007.06
2019-06-10T11:02:17.925Z,1007.09
2019-06-10T11:03:17.880Z,1007.20
2019-06-10T11:04:17.855Z,1007.21
2019-06-10T11:05:18.659Z,1007.17
2019-06-10T11:06:18.358Z,1007.19
2019-06-10T11:07:17.829Z,1007.18
2019-06-10T11:08:17.725Z,1007.19
2019-06-10T11:09:17.703Z,1007.14
2019-06-10T11:10:17.660Z,1007.12
2019-06-10T11:11:17.635Z,1007.06
2019-06-10T11:12:17.609Z,1007.06
2019-06-10T11:13:17.604Z,1007.06
2019-06-10T11:14:17.548Z,1007.01
2019-06-10T11:15:17.508Z,1007.03
2019-06-10T11:16:17.475Z,1007.01
2019-06-10T11:17:17.462Z,1007.00
2019-06-10T11:18:17.455Z,1007.04
2019-06-10T11:19:17.418Z,1006.94
2019-06-10T11:20:17.356Z,1006.89
2019-06-10T11:21:17.325Z,1006.85
2019-06-10T11:22:17.291Z,1006.84
2019-06-10T11:23:17.278Z,1006.87
2019-06-10T11:24:32.814Z,1006.96
2019-06-10T11:25:17.207Z,1006.98
2019-06-10T11:26:17.179Z,1006.91
2019-06-10T11:27:17.178Z,1006.86
2019-06-10T11:28:17.112Z,1006.85
2019-06-10T11:29:17.082Z,1006.83
2019-06-10T11:30:17.069Z,1006.66
2019-06-10T11:31:17.064Z,1006.68
2019-06-10T11:32:17.010Z,1006.77
2019-06-10T11:33:16.993Z,1006.88
2019-06-10T11:34:19.766Z,1006.92
2019-06-10T11:35:16.906Z,1006.86
2019-06-10T11:36:16.886Z,1006.82
2019-06-10T11:37:16.929Z,1006.71
2019-06-10T11:38:16.852Z,1006.66
2019-06-10T11:39:16.780Z,1006.66
2019-06-10T11:40:16.747Z,1006.67
2019-06-10T11:41:16.725Z,1006.70
2019-06-10T11:42:16.693Z,1006.77
2019-06-10T11:43:16.673Z,1006.77
2019-06-10T11:44:16.688Z,1006.73
2019-06-10T11:45:16.608Z,1006.71
2019-06-10T11:46:16.577Z,1006.72
2019-06-10T11:47:16.540Z,1006.76
2019-06-10T11:48:16.509Z,1006.71
2019-06-10T11:49:16.486Z,1006.75
2019-06-10T11:50:16.493Z,1006.75
2019-06-10T11:51:16.417Z,1006.77
2019-06-10T11:52:16.447Z,1006.70
2019-06-10T11:53:16.367Z,1006.63
2019-06-10T11:54:16.336Z,1006.60
2019-06-10T11:55:19.120Z,1006.58
2019-06-10T11:56:16.288Z,1006.55
2019-06-10T11:57:16.254Z,1006.50
2019-06-10T11:58:16.225Z,1006.54
2019-06-10T11:59:16.227Z,1006.54
2019-06-10T12:00:17.404Z,1006.59
2019-06-10T12:01:16.140Z,1006.58
2019-06-10T12:02:16.141Z,1006.47
2019-06-10T12:03:16.090Z,1006.44
2019-06-10T12:04:16.068Z,1006.39
2019-06-10T12:05:17.443Z,1006.39
2019-06-10T12:06:16.003Z,1006.51